ROMMA est une association bénévole à but non lucratif. Votre soutien est indispensable : ADHERER à ROMMA ou FAIRE un DON

Briord - (01, Ain)

Bugey (281 m)   Longitude: 05° 29' 13" E   Latitude: 45° 46' 37" N Station partenaire n°15
 

Détail journalier du     <<     >>

Température Precipitation Humidité Pression Vent Dir Rafale Dir. rafale Ensol.
Heure (°C) (mm) (%) (hPa) (km/h) (km/h) (min)
01:00 10.308610105ONO16NO0
02:00 10.208810106NO18NO0
03:00 9.808910102O6NO0
04:00 9.0090101105ONO0
05:00 8.2089101105NNO0
06:00 8.1090101102ENE0
07:00 8.5090101105NNO0
08:00 9.308710112---15ONO0
09:00 9.608710115ONO18ONO0
10:00 10.808210116NO19NO0
11:00 10.7083101110NO23ONO0
12:00 11.4081101210NO23NNO0
13:00 12.2077101114NO29NO0
14:00 12.4073101113NO27NO0
15:00 13.207110119NO23NO0
16:00 14.3069101111NO24NO0
17:00 14.1071101114NO32NNO0
18:00 13.9069101111NO23NO0
19:00 14.3062101210NO23NNO0
20:00 12.806310129NO26NO30
21:00 11.706510139NO24NO0
22:00 10.706710145NO18NO0
23:00 9.307210144NO16ONO0
minuit 7.907710144NNO16NNO0

Graphique du 11-04-2019

 

Serveur OMMA